Time;durP1;ratioP1;P1;durP2;ratioP2;P2;SDS_P1;SDS_P2;PMS_P1;PMS_P2;Temp;Humidity;BMP_temperature;BMP_pressure;BME280_temperature;BME280_humidity;BME280_pressure;Samples;Min_cycle;Max_cycle;Signal;HPM_P1;HPM_P2
2023/08/25 00:00:37;;;;;;;25.40;22.60;;;20.40;14.80;;;;;;5103214;28;20468;-73
2023/08/25 00:03:03;;;;;;;25.88;23.10;;;20.40;12.70;;;;;;5106979;28;20404;-72
2023/08/25 00:05:29;;;;;;;25.80;23.10;;;20.40;11.60;;;;;;5103740;28;20447;-72
2023/08/25 00:07:54;;;;;;;26.73;23.92;;;20.40;12.70;;;;;;5106636;28;20392;-72
2023/08/25 00:10:22;;;;;;;27.60;24.70;;;20.30;12.70;;;;;;5094233;28;20923;-73
2023/08/25 00:12:49;;;;;;;27.45;24.65;;;20.30;13.40;;;;;;5105585;28;20400;-73
2023/08/25 00:15:14;;;;;;;29.25;26.15;;;20.20;13.20;;;;;;5102122;28;20906;-72
2023/08/25 00:17:40;;;;;;;29.83;26.40;;;20.20;13.90;;;;;;5097635;28;20404;-73
2023/08/25 00:20:10;;;;;;;30.40;27.13;;;20.20;14.70;;;;;;5093288;28;20491;-73
2023/08/25 00:22:36;;;;;;;31.42;27.27;;;20.10;13.70;;;;;;5105568;28;20438;-73
2023/08/25 00:25:02;;;;;;;30.67;27.55;;;20.10;15.20;;;;;;5098181;28;20390;-72
2023/08/25 00:27:28;;;;;;;30.40;27.15;;;20.10;16.60;;;;;;5102370;28;20431;-72
2023/08/25 00:29:54;;;;;;;31.63;28.27;;;20.00;19.30;;;;;;5097756;28;20461;-72
2023/08/25 00:32:20;;;;;;;31.95;28.65;;;20.00;19.20;;;;;;5101701;28;20408;-72
2023/08/25 00:34:45;;;;;;;32.53;29.10;;;20.00;20.80;;;;;;5098002;27;20755;-73
2023/08/25 00:37:11;;;;;;;32.20;28.65;;;19.90;20.60;;;;;;5102063;28;20777;-73
2023/08/25 00:39:38;;;;;;;32.40;28.90;;;19.90;22.10;;;;;;5098269;28;20413;-72
2023/08/25 00:42:04;;;;;;;32.20;28.80;;;19.90;22.70;;;;;;5090480;28;20406;-73
2023/08/25 00:44:29;;;;;;;31.80;28.55;;;19.80;22.80;;;;;;5092733;28;20413;-73
2023/08/25 00:46:55;;;;;;;32.20;28.77;;;19.80;24.30;;;;;;5108578;27;20778;-73
2023/08/25 00:49:22;;;;;;;32.27;28.77;;;19.80;23.40;;;;;;5105649;28;21146;-73
2023/08/25 00:51:49;;;;;;;32.47;28.90;;;19.80;24.50;;;;;;5108859;28;20428;-72
2023/08/25 00:54:16;;;;;;;31.58;28.27;;;19.80;25.10;;;;;;5094543;28;20398;-73
2023/08/25 00:56:42;;;;;;;32.25;28.83;;;19.70;25.80;;;;;;5108605;28;20404;-73
2023/08/25 00:59:08;;;;;;;32.00;28.70;;;19.70;26.60;;;;;;5105259;28;20904;-72
2023/08/25 01:01:35;;;;;;;31.57;28.23;;;19.70;26.90;;;;;;5108463;28;20407;-72
2023/08/25 01:04:00;;;;;;;31.75;28.35;;;19.60;27.70;;;;;;5104722;28;20418;-73
2023/08/25 01:06:26;;;;;;;30.30;27.27;;;19.60;28.40;;;;;;5107875;28;20401;-73
2023/08/25 01:08:52;;;;;;;33.28;29.67;;;19.60;28.60;;;;;;5094204;28;21686;-73
2023/08/25 01:12:10;;;;;;;33.63;30.10;;;19.60;27.90;;;;;;5098896;28;20453;-73
2023/08/25 01:15:04;;;;;;;33.00;29.50;;;19.60;29.80;;;;;;5039516;28;20425;-73
2023/08/25 01:17:53;;;;;;;34.20;30.55;;;19.50;31.80;;;;;;5081591;28;20424;-72
2023/08/25 01:20:22;;;;;;;37.25;31.33;;;19.40;32.60;;;;;;5089930;28;20467;-73
2023/08/25 01:23:15;;;;;;;33.92;30.38;;;19.40;34.60;;;;;;5090720;28;20908;-73
2023/08/25 01:25:42;;;;;;;34.17;30.47;;;19.40;36.20;;;;;;5103314;28;20408;-73
2023/08/25 01:28:07;;;;;;;35.80;31.55;;;19.40;38.90;;;;;;5092826;28;20405;-72
2023/08/25 01:30:38;;;;;;;36.08;32.17;;;19.40;39.90;;;;;;5098478;27;20950;-73
2023/08/25 01:33:04;;;;;;;36.28;32.45;;;19.40;42.00;;;;;;5100969;28;20959;-72
2023/08/25 01:35:51;;;;;;;36.28;32.28;;;19.30;43.70;;;;;;5101258;28;20899;-73
2023/08/25 01:38:21;;;;;;;36.97;33.03;;;19.40;48.60;;;;;;5100957;28;20414;-73
2023/08/25 01:41:10;;;;;;;36.13;32.05;;;19.40;54.10;;;;;;5106632;28;20444;-73
2023/08/25 01:43:39;;;;;;;37.03;32.77;;;19.50;59.40;;;;;;5101794;28;20782;-73
2023/08/25 01:46:08;;;;;;;36.83;32.65;;;19.50;65.30;;;;;;5094083;28;20941;-73
2023/08/25 01:48:35;;;;;;;40.70;34.13;;;19.50;71.40;;;;;;5103409;28;20431;-73
2023/08/25 01:51:00;;;;;;;38.77;34.00;;;19.50;74.20;;;;;;5101673;28;20803;-73
2023/08/25 01:53:27;;;;;;;39.03;33.75;;;19.50;77.20;;;;;;5091988;28;20410;-72
2023/08/25 01:55:53;;;;;;;39.97;34.72;;;19.60;79.10;;;;;;5095425;28;20428;-73
2023/08/25 01:58:18;;;;;;;42.80;35.80;;;19.60;80.50;;;;;;5085270;28;20412;-73
2023/08/25 02:00:44;;;;;;;44.77;37.77;;;19.60;81.10;;;;;;5100896;28;20750;-72
2023/08/25 02:03:13;;;;;;;45.42;38.83;;;19.60;80.80;;;;;;5103159;28;20400;-73
2023/08/25 02:05:40;;;;;;;46.42;38.88;;;19.70;81.50;;;;;;5105517;28;20894;-73
2023/08/25 02:08:06;;;;;;;44.83;38.28;;;19.70;82.10;;;;;;5101592;28;20402;-72
2023/08/25 02:10:31;;;;;;;44.80;37.50;;;19.70;82.10;;;;;;5106255;28;20432;-73
2023/08/25 02:12:57;;;;;;;46.70;38.30;;;19.70;82.00;;;;;;5103080;28;20483;-73
2023/08/25 02:15:22;;;;;;;47.15;38.00;;;19.70;81.80;;;;;;5094065;28;20396;-73
2023/08/25 02:17:48;;;;;;;45.07;38.37;;;19.70;81.90;;;;;;5102094;28;20406;-73
2023/08/25 02:20:14;;;;;;;47.27;39.00;;;19.60;81.80;;;;;;5104036;28;20438;-73
2023/08/25 02:22:39;;;;;;;46.00;39.15;;;19.60;82.10;;;;;;5102713;28;20398;-73
2023/08/25 02:25:05;;;;;;;47.27;39.23;;;19.60;82.20;;;;;;5094429;28;20400;-72
2023/08/25 02:27:31;;;;;;;50.25;39.60;;;19.60;82.50;;;;;;5092164;28;20401;-72
2023/08/25 02:29:56;;;;;;;53.53;40.07;;;19.50;82.50;;;;;;5104219;28;20424;-73
2023/08/25 02:32:22;;;;;;;49.25;39.40;;;19.60;82.50;;;;;;5102226;28;20485;-73
2023/08/25 02:34:48;;;;;;;50.57;40.87;;;19.50;82.70;;;;;;5103682;28;20554;-73
2023/08/25 02:37:13;;;;;;;51.70;39.73;;;19.50;82.60;;;;;;5103251;28;20403;-73
2023/08/25 02:39:39;;;;;;;51.17;41.33;;;19.50;82.90;;;;;;5103545;28;20427;-73
2023/08/25 02:42:04;;;;;;;51.83;40.83;;;19.50;82.90;;;;;;5093442;28;20413;-73
2023/08/25 02:44:30;;;;;;;52.00;41.30;;;19.40;82.80;;;;;;5103284;28;20487;-73
2023/08/25 02:46:56;;;;;;;52.73;41.93;;;19.30;82.90;;;;;;5102348;28;20518;-73
2023/08/25 02:49:21;;;;;;;49.60;39.70;;;19.40;83.40;;;;;;5098309;28;20405;-73
2023/08/25 02:51:47;;;;;;;51.25;40.63;;;19.40;83.80;;;;;;5097416;28;20435;-73
2023/08/25 02:54:13;;;;;;;51.77;40.33;;;19.40;84.00;;;;;;5092956;28;20457;-72
2023/08/25 02:56:38;;;;;;;50.63;39.78;;;19.40;84.20;;;;;;5102691;28;20800;-72
2023/08/25 02:59:04;;;;;;;48.73;39.50;;;19.40;84.50;;;;;;5100622;28;20488;-73
2023/08/25 03:01:29;;;;;;;49.87;39.43;;;19.40;84.60;;;;;;5102526;28;20400;-72
2023/08/25 03:03:55;;;;;;;52.75;41.08;;;19.40;84.80;;;;;;5100111;28;20432;-73
2023/08/25 03:06:21;;;;;;;49.25;40.90;;;19.50;84.60;;;;;;5101494;28;20996;-73
2023/08/25 03:08:47;;;;;;;50.63;40.93;;;19.50;84.40;;;;;;5096327;28;20492;-73
2023/08/25 03:11:12;;;;;;;51.83;40.63;;;19.40;84.20;;;;;;5096139;28;20431;-73
2023/08/25 03:13:38;;;;;;;56.67;43.07;;;19.40;84.30;;;;;;5098267;28;20398;-73
2023/08/25 03:16:03;;;;;;;58.10;43.17;;;19.40;84.30;;;;;;5100425;28;20432;-73
2023/08/25 03:18:30;;;;;;;60.08;44.17;;;19.40;84.40;;;;;;5097230;28;20917;-73
2023/08/25 03:20:55;;;;;;;60.65;44.95;;;19.30;84.60;;;;;;5100051;28;20469;-73
2023/08/25 03:23:21;;;;;;;61.00;46.50;;;19.30;85.10;;;;;;5089637;28;20871;-73
2023/08/25 03:25:47;;;;;;;63.22;46.55;;;19.40;85.60;;;;;;5092784;28;20433;-72
2023/08/25 03:28:12;;;;;;;64.60;47.60;;;19.30;85.60;;;;;;5087941;28;20398;-73
2023/08/25 03:30:39;;;;;;;62.72;46.92;;;19.40;86.00;;;;;;5097107;28;20435;-73
2023/08/25 03:33:05;;;;;;;62.95;46.38;;;19.40;86.00;;;;;;5101582;28;20477;-73
2023/08/25 03:35:36;;;;;;;64.55;46.15;;;19.40;85.90;;;;;;5102685;28;20947;-73
2023/08/25 03:38:02;;;;;;;61.20;44.95;;;19.40;86.10;;;;;;5092970;28;20388;-73
2023/08/25 03:40:28;;;;;;;61.70;45.35;;;19.40;86.20;;;;;;5102414;28;20404;-73
2023/08/25 03:42:54;;;;;;;61.57;44.60;;;19.40;86.20;;;;;;5103456;28;20395;-73
2023/08/25 03:45:20;;;;;;;62.75;44.75;;;19.50;86.10;;;;;;5101470;28;20412;-73
2023/08/25 03:47:46;;;;;;;62.33;44.00;;;19.50;85.90;;;;;;5101289;28;20487;-73
2023/08/25 03:50:12;;;;;;;61.63;43.33;;;19.50;85.90;;;;;;5101370;28;20492;-73
2023/08/25 03:52:38;;;;;;;60.97;44.20;;;19.50;86.10;;;;;;5100947;28;20800;-73
2023/08/25 03:55:04;;;;;;;61.20;43.88;;;19.50;86.00;;;;;;5101137;28;20469;-73
2023/08/25 03:57:30;;;;;;;60.35;43.08;;;19.50;85.10;;;;;;5100817;28;20405;-73
2023/08/25 03:59:55;;;;;;;58.50;42.80;;;19.50;85.50;;;;;;5100999;28;20388;-73
2023/08/25 04:02:21;;;;;;;59.90;43.00;;;19.50;85.60;;;;;;5096089;28;20500;-73
2023/08/25 04:04:46;;;;;;;60.53;42.50;;;19.50;85.70;;;;;;5096235;28;20396;-73
2023/08/25 04:07:15;;;;;;;59.95;42.95;;;19.50;85.90;;;;;;5096220;28;20402;-73
2023/08/25 04:09:41;;;;;;;59.20;43.80;;;19.50;86.10;;;;;;5096618;28;20400;-73
2023/08/25 04:12:07;;;;;;;61.33;43.50;;;19.50;86.00;;;;;;5100018;28;20483;-73
2023/08/25 04:14:34;;;;;;;65.30;45.00;;;19.60;86.00;;;;;;5099753;28;20807;-73
2023/08/25 04:16:59;;;;;;;61.90;43.35;;;19.50;86.10;;;;;;5089701;28;20393;-73
2023/08/25 04:19:25;;;;;;;64.00;44.28;;;19.50;86.20;;;;;;5098818;28;20495;-73
2023/08/25 04:21:50;;;;;;;62.35;44.40;;;19.50;86.10;;;;;;5097387;28;20524;-73
2023/08/25 04:24:17;;;;;;;59.83;42.67;;;19.50;86.00;;;;;;5098936;28;20559;-73
2023/08/25 04:26:43;;;;;;;60.20;43.88;;;19.50;86.00;;;;;;5095554;28;20467;-73
2023/08/25 04:29:09;;;;;;;59.93;44.03;;;19.50;86.10;;;;;;5097338;28;20822;-73
2023/08/25 04:31:36;;;;;;;60.47;43.97;;;19.50;86.10;;;;;;5102878;28;20559;-73
2023/08/25 04:34:02;;;;;;;62.40;45.25;;;19.50;86.10;;;;;;5091623;28;20409;-74
2023/08/25 04:36:27;;;;;;;62.63;45.00;;;19.40;86.00;;;;;;5097337;28;20444;-73
2023/08/25 04:38:53;;;;;;;63.23;45.00;;;19.40;85.90;;;;;;5099907;28;20424;-73
2023/08/25 04:41:19;;;;;;;66.13;46.08;;;19.40;85.80;;;;;;5095651;28;20731;-73
2023/08/25 04:43:45;;;;;;;60.08;44.25;;;19.40;85.80;;;;;;5105762;28;20400;-73
2023/08/25 04:46:12;;;;;;;61.03;45.57;;;19.40;86.10;;;;;;5106388;28;20928;-73
2023/08/25 04:48:38;;;;;;;59.37;45.07;;;19.40;86.20;;;;;;5105283;28;20395;-73
2023/08/25 04:51:04;;;;;;;58.30;44.17;;;19.40;86.60;;;;;;5095468;28;20461;-73
2023/08/25 04:53:29;;;;;;;59.95;44.97;;;19.40;86.80;;;;;;5095242;28;20473;-73
2023/08/25 04:55:55;;;;;;;58.83;44.67;;;19.40;87.00;;;;;;5099063;28;20429;-73
2023/08/25 04:58:21;;;;;;;62.00;45.20;;;19.40;87.20;;;;;;5100601;28;20392;-73
2023/08/25 05:00:50;;;;;;;57.88;44.72;;;19.40;87.10;;;;;;5095297;28;20435;-73
2023/08/25 05:03:16;;;;;;;62.42;45.20;;;19.40;87.30;;;;;;5102602;28;20398;-73
2023/08/25 05:05:41;;;;;;;60.73;44.53;;;19.40;87.60;;;;;;5104323;28;20400;-73
2023/08/25 05:08:07;;;;;;;57.42;44.05;;;19.40;87.70;;;;;;5101772;28;20444;-73
2023/08/25 05:10:34;;;;;;;57.00;43.37;;;19.40;87.80;;;;;;5104543;28;20443;-73
2023/08/25 05:12:59;;;;;;;55.97;43.05;;;19.50;88.10;;;;;;5102729;28;20398;-73
2023/08/25 05:15:25;;;;;;;54.37;42.63;;;19.50;88.10;;;;;;5102569;28;20401;-73
2023/08/25 05:17:51;;;;;;;60.10;44.10;;;19.50;88.10;;;;;;5093632;28;20931;-73
2023/08/25 05:20:20;;;;;;;58.88;43.40;;;19.60;88.20;;;;;;5098971;28;20401;-73
2023/08/25 05:22:46;;;;;;;57.95;43.65;;;19.60;88.30;;;;;;5097002;28;20542;-73
2023/08/25 05:25:12;;;;;;;57.33;44.15;;;19.60;88.40;;;;;;5103261;28;20397;-71
2023/08/25 05:27:38;;;;;;;56.10;43.08;;;19.60;88.60;;;;;;5092992;28;20439;-71
2023/08/25 05:30:04;;;;;;;57.87;44.43;;;19.60;88.30;;;;;;5105099;28;20423;-72
2023/08/25 05:32:30;;;;;;;55.80;43.73;;;19.60;88.10;;;;;;5093845;28;20470;-72
2023/08/25 05:34:55;;;;;;;54.78;43.50;;;19.60;88.40;;;;;;5091164;28;20406;-72
2023/08/25 05:37:21;;;;;;;58.93;44.97;;;19.70;88.40;;;;;;5099685;28;20402;-72
2023/08/25 05:39:47;;;;;;;59.25;43.50;;;19.70;88.40;;;;;;5105479;28;20401;-72
2023/08/25 05:42:12;;;;;;;57.80;44.77;;;19.70;88.40;;;;;;5103116;28;20485;-73
2023/08/25 05:44:38;;;;;;;58.00;44.40;;;19.70;88.50;;;;;;5105645;28;20396;-72
2023/08/25 05:47:04;;;;;;;57.58;44.20;;;19.80;88.60;;;;;;5102876;28;20402;-73
2023/08/25 05:49:29;;;;;;;60.60;45.67;;;19.70;88.10;;;;;;5105313;28;20396;-73
2023/08/25 05:51:55;;;;;;;62.15;44.85;;;19.80;88.20;;;;;;5102132;28;20436;-73
2023/08/25 05:54:21;;;;;;;62.22;45.85;;;19.80;88.40;;;;;;5103308;28;20406;-73
2023/08/25 05:56:47;;;;;;;60.33;44.23;;;19.70;88.40;;;;;;5102371;28;20780;-73
2023/08/25 05:59:12;;;;;;;58.75;44.35;;;19.80;88.50;;;;;;5098262;28;20414;-73
2023/08/25 06:01:38;;;;;;;62.43;45.60;;;19.80;88.50;;;;;;5097955;28;20398;-73
2023/08/25 06:04:04;;;;;;;66.83;45.67;;;19.80;88.40;;;;;;5099301;28;20402;-73
2023/08/25 06:06:30;;;;;;;68.73;46.60;;;19.80;88.30;;;;;;5096444;28;20406;-73
2023/08/25 06:08:56;;;;;;;65.22;46.42;;;19.80;87.90;;;;;;5103462;28;20388;-73
2023/08/25 06:11:22;;;;;;;72.68;47.95;;;19.80;87.90;;;;;;5101243;28;20466;-73
2023/08/25 06:13:48;;;;;;;74.18;48.97;;;19.80;88.00;;;;;;5101953;28;20388;-73
2023/08/25 06:16:14;;;;;;;74.18;48.38;;;19.80;88.10;;;;;;5100291;28;20414;-73
2023/08/25 06:18:40;;;;;;;76.47;49.20;;;19.80;88.30;;;;;;5100906;28;20483;-73
2023/08/25 06:21:06;;;;;;;74.35;49.38;;;19.80;88.10;;;;;;5092149;28;20456;-73
2023/08/25 06:23:31;;;;;;;78.50;48.75;;;19.90;88.10;;;;;;5102063;28;20753;-73
2023/08/25 06:25:59;;;;;;;80.83;49.73;;;19.90;87.70;;;;;;5100392;28;20402;-73
2023/08/25 06:28:24;;;;;;;82.55;50.55;;;19.90;87.70;;;;;;5094669;28;20396;-73
2023/08/25 06:30:50;;;;;;;85.85;51.17;;;19.90;87.90;;;;;;5102618;28;20432;-73
2023/08/25 06:33:16;;;;;;;84.73;51.03;;;19.90;87.70;;;;;;5098611;28;20475;-73
2023/08/25 06:35:42;;;;;;;83.72;50.65;;;19.90;87.80;;;;;;5096689;28;20408;-73
2023/08/25 06:38:08;;;;;;;88.97;51.17;;;19.90;87.70;;;;;;5101836;28;20469;-73
2023/08/25 06:40:34;;;;;;;93.88;52.33;;;19.90;88.10;;;;;;5101969;28;20746;-73
2023/08/25 06:43:01;;;;;;;94.20;53.88;;;20.00;88.20;;;;;;5092705;28;20404;-72
2023/08/25 06:45:27;;;;;;;92.55;53.65;;;20.00;87.70;;;;;;5100705;28;20430;-73
2023/08/25 06:47:54;;;;;;;95.03;53.97;;;20.00;88.00;;;;;;5102003;28;20396;-73
2023/08/25 06:50:21;;;;;;;91.10;54.45;;;20.10;87.90;;;;;;5099734;28;20517;-73
2023/08/25 06:52:47;;;;;;;92.50;53.07;;;20.10;88.30;;;;;;5095148;28;20394;-73
2023/08/25 06:55:12;;;;;;;89.90;54.13;;;20.20;88.10;;;;;;5093650;28;20405;-73
2023/08/25 06:57:38;;;;;;;87.67;53.17;;;20.20;87.60;;;;;;5091695;28;20392;-73
2023/08/25 07:00:06;;;;;;;86.55;52.22;;;20.30;87.30;;;;;;5090873;28;20398;-73
2023/08/25 07:02:31;;;;;;;82.80;51.42;;;20.30;87.40;;;;;;5088294;28;20401;-73
2023/08/25 07:04:57;;;;;;;75.75;49.17;;;20.30;86.10;;;;;;5094421;28;20390;-73
2023/08/25 07:07:26;;;;;;;74.60;48.90;;;20.30;85.90;;;;;;5097958;28;20498;-73
2023/08/25 07:09:53;;;;;;;72.05;47.95;;;20.30;85.00;;;;;;5096953;28;20481;-73
2023/08/25 07:12:18;;;;;;;68.23;46.13;;;20.30;84.60;;;;;;5091978;28;20400;-73
2023/08/25 07:14:44;;;;;;;65.80;45.72;;;20.30;85.10;;;;;;5097143;28;20429;-72
2023/08/25 07:17:10;;;;;;;70.47;43.83;;;20.30;85.60;;;;;;5097756;28;20530;-73
2023/08/25 07:19:36;;;;;;;63.35;42.95;;;20.40;85.90;;;;;;5096702;28;20500;-73
2023/08/25 07:22:02;;;;;;;59.25;42.17;;;20.40;85.40;;;;;;5097887;28;20486;-73
2023/08/25 07:24:28;;;;;;;59.55;39.92;;;20.50;84.70;;;;;;5096417;28;20406;-73
2023/08/25 07:26:54;;;;;;;53.60;39.03;;;20.50;84.70;;;;;;5090598;28;20409;-73
2023/08/25 07:29:19;;;;;;;51.28;38.35;;;20.60;84.00;;;;;;5097651;28;20467;-72
2023/08/25 07:31:45;;;;;;;52.23;38.00;;;20.60;83.20;;;;;;5087833;28;20567;-73
2023/08/25 07:34:10;;;;;;;50.43;36.10;;;20.70;82.40;;;;;;5087643;28;20737;-73
2023/08/25 07:36:38;;;;;;;47.33;35.10;;;20.70;82.20;;;;;;5094501;28;20392;-73
2023/08/25 07:39:04;;;;;;;46.65;34.35;;;20.80;81.40;;;;;;5099816;28;20406;-73
2023/08/25 07:41:29;;;;;;;45.92;33.53;;;20.80;80.60;;;;;;5097499;28;20910;-72
2023/08/25 07:43:56;;;;;;;40.40;31.13;;;20.90;79.40;;;;;;5097732;28;20884;-73
2023/08/25 07:46:21;;;;;;;38.20;30.35;;;20.80;77.50;;;;;;5102884;28;20404;-73
2023/08/25 07:48:47;;;;;;;44.00;30.50;;;20.80;76.80;;;;;;5100417;28;20394;-73
2023/08/25 07:51:13;;;;;;;42.60;30.70;;;20.90;77.00;;;;;;5101784;28;20481;-73
2023/08/25 07:53:38;;;;;;;37.70;29.03;;;20.90;76.70;;;;;;5100085;28;20806;-73
2023/08/25 07:56:04;;;;;;;37.55;27.92;;;21.00;76.30;;;;;;5101201;28;20419;-73
2023/08/25 07:58:30;;;;;;;32.33;23.50;;;21.10;76.50;;;;;;5099321;28;20394;-73
2023/08/25 08:00:55;;;;;;;26.65;22.38;;;21.20;75.60;;;;;;5100989;28;21061;-73
2023/08/25 08:03:21;;;;;;;32.27;22.40;;;21.20;73.70;;;;;;5098509;28;20398;-73
2023/08/25 08:05:46;;;;;;;30.27;22.65;;;21.20;72.80;;;;;;5090201;28;20410;-73
2023/08/25 08:08:12;;;;;;;26.80;22.07;;;21.20;72.30;;;;;;5097890;28;20394;-73
2023/08/25 08:10:38;;;;;;;29.60;21.73;;;21.20;71.70;;;;;;5099049;28;20416;-73
2023/08/25 08:13:04;;;;;;;29.52;21.77;;;21.20;71.50;;;;;;5100380;28;20413;-73
2023/08/25 08:15:30;;;;;;;28.38;22.63;;;21.20;71.60;;;;;;5091415;28;20390;-73
2023/08/25 08:17:56;;;;;;;32.00;22.67;;;21.30;71.70;;;;;;5098923;28;20396;-73
2023/08/25 08:20:22;;;;;;;24.70;19.88;;;21.30;70.90;;;;;;5100335;28;20393;-73
2023/08/25 08:22:48;;;;;;;26.40;18.63;;;21.30;69.20;;;;;;5101889;28;20448;-73
2023/08/25 08:25:14;;;;;;;25.60;18.95;;;21.30;67.90;;;;;;5097629;28;20485;-73
2023/08/25 08:27:41;;;;;;;24.10;19.50;;;21.30;67.80;;;;;;5091105;28;20451;-73
2023/08/25 08:30:08;;;;;;;26.88;19.27;;;21.30;67.00;;;;;;5107500;28;20482;-73
2023/08/25 08:32:35;;;;;;;26.00;20.35;;;21.30;65.70;;;;;;5103877;28;20489;-73
2023/08/25 08:35:03;;;;;;;26.08;19.67;;;21.40;66.80;;;;;;5098007;28;20403;-73
2023/08/25 08:37:28;;;;;;;26.33;19.95;;;21.50;67.30;;;;;;5103987;28;20481;-73
2023/08/25 08:39:54;;;;;;;23.25;18.33;;;21.60;67.10;;;;;;5107566;28;20479;-74
2023/08/25 08:42:20;;;;;;;26.30;18.75;;;21.80;65.20;;;;;;5104061;28;20402;-73
2023/08/25 08:44:47;;;;;;;27.38;19.13;;;21.90;63.70;;;;;;5107349;28;20789;-73
2023/08/25 08:47:14;;;;;;;22.23;17.38;;;22.00;62.10;;;;;;5106919;28;20405;-72
2023/08/25 08:49:40;;;;;;;19.10;15.82;;;22.20;61.30;;;;;;5099879;28;20398;-73
2023/08/25 08:52:07;;;;;;;23.33;17.40;;;22.30;59.20;;;;;;5099883;28;20791;-73
2023/08/25 08:54:35;;;;;;;22.98;16.90;;;22.40;58.00;;;;;;5107082;28;20392;-73
2023/08/25 08:57:01;;;;;;;21.77;17.40;;;22.60;56.20;;;;;;5100831;28;20413;-73
2023/08/25 08:59:26;;;;;;;18.73;15.07;;;22.70;52.10;;;;;;5098232;28;20730;-73
2023/08/25 09:01:53;;;;;;;22.57;15.93;;;22.70;49.10;;;;;;5101681;28;20405;-73
2023/08/25 09:04:22;;;;;;;20.23;15.55;;;22.60;46.00;;;;;;5106318;28;20877;-73
2023/08/25 09:06:51;;;;;;;22.67;16.77;;;22.60;46.10;;;;;;5099919;28;20510;-73
2023/08/25 09:09:23;;;;;;;19.60;15.75;;;22.50;48.00;;;;;;5089523;28;20500;-73
2023/08/25 09:11:49;;;;;;;21.58;16.20;;;22.50;46.50;;;;;;5093335;28;20425;-72
2023/08/25 09:14:26;;;;;;;22.88;17.23;;;22.40;44.90;;;;;;5103986;28;20403;-73
2023/08/25 09:17:01;;;;;;;21.25;16.45;;;22.30;45.80;;;;;;5100037;28;20455;-73
2023/08/25 09:19:33;;;;;;;21.02;16.45;;;22.30;47.40;;;;;;5100917;28;20398;-73
2023/08/25 09:21:59;;;;;;;24.20;16.92;;;22.40;48.90;;;;;;5106880;28;20577;-73
2023/08/25 09:24:25;;;;;;;22.50;15.98;;;22.30;47.40;;;;;;5097601;28;20488;-73
2023/08/25 09:26:51;;;;;;;22.30;16.55;;;22.40;48.60;;;;;;5095335;28;20459;-73
2023/08/25 09:29:17;;;;;;;21.08;16.33;;;22.40;47.70;;;;;;5098326;28;21150;-73
2023/08/25 09:31:44;;;;;;;21.13;16.58;;;22.40;44.80;;;;;;5103963;28;20519;-73
2023/08/25 09:34:14;;;;;;;22.27;16.40;;;22.30;45.90;;;;;;5101746;28;20448;-73
2023/08/25 09:36:52;;;;;;;21.65;16.33;;;22.30;45.60;;;;;;5105040;28;20762;-72
2023/08/25 09:39:18;;;;;;;23.33;16.87;;;22.20;43.80;;;;;;5100415;28;20413;-73
2023/08/25 09:41:44;;;;;;;21.55;14.88;;;22.10;45.10;;;;;;5105396;28;20400;-73
2023/08/25 09:44:11;;;;;;;19.55;15.05;;;22.10;45.50;;;;;;5101513;28;20396;-73
2023/08/25 09:46:37;;;;;;;20.17;15.60;;;22.10;46.30;;;;;;5104790;28;20897;-73
2023/08/25 09:49:04;;;;;;;21.80;15.77;;;22.10;45.00;;;;;;5100454;28;20405;-73
2023/08/25 09:51:44;;;;;;;19.90;14.63;;;22.00;45.40;;;;;;5105201;28;20925;-73
2023/08/25 09:54:12;;;;;;;21.58;15.65;;;22.00;46.30;;;;;;5094542;28;20452;-73
2023/08/25 09:56:39;;;;;;;23.85;16.85;;;22.00;47.70;;;;;;5098385;28;20534;-73
2023/08/25 09:59:07;;;;;;;19.52;15.82;;;22.10;48.50;;;;;;5101965;28;20961;-73
2023/08/25 10:01:37;;;;;;;21.98;15.85;;;22.00;47.40;;;;;;5102943;28;20397;-73
2023/08/25 10:04:04;;;;;;;22.33;15.18;;;22.10;47.30;;;;;;5095528;28;20485;-73
2023/08/25 10:06:31;;;;;;;20.60;15.23;;;22.20;48.20;;;;;;5097490;28;20433;-73
2023/08/25 10:08:58;;;;;;;19.40;14.75;;;22.30;49.10;;;;;;5100852;28;20400;-73
2023/08/25 10:11:30;;;;;;;17.77;12.45;;;22.50;50.40;;;;;;5099743;28;20421;-73
2023/08/25 10:13:59;;;;;;;16.08;11.35;;;22.80;48.00;;;;;;5100914;28;20407;-73
2023/08/25 10:16:27;;;;;;;14.93;11.45;;;23.00;45.20;;;;;;5091072;28;20772;-73
2023/08/25 10:18:58;;;;;;;16.63;12.30;;;23.20;41.40;;;;;;5098904;28;20392;-73
2023/08/25 10:21:25;;;;;;;17.85;13.27;;;23.50;44.60;;;;;;5096295;27;20968;-73
2023/08/25 10:23:54;;;;;;;17.37;13.67;;;24.00;38.60;;;;;;5100926;28;20432;-73
2023/08/25 10:26:22;;;;;;;17.92;13.70;;;24.20;29.10;;;;;;5096164;28;20402;-73
2023/08/25 10:28:48;;;;;;;19.27;14.18;;;24.10;25.40;;;;;;5088813;28;20470;-73
2023/08/25 10:31:14;;;;;;;19.07;15.03;;;24.00;25.10;;;;;;5100953;28;20432;-73
2023/08/25 10:33:59;;;;;;;19.02;14.20;;;23.80;25.20;;;;;;5106083;28;20470;-73
2023/08/25 10:36:25;;;;;;;19.67;13.10;;;23.70;24.60;;;;;;5091460;28;20458;-73
2023/08/25 10:38:54;;;;;;;16.50;13.18;;;23.50;26.10;;;;;;5103420;28;20388;-73
2023/08/25 10:41:21;;;;;;;15.57;12.85;;;23.40;27.90;;;;;;5098014;28;20406;-73
2023/08/25 10:43:51;;;;;;;18.88;13.55;;;23.30;28.90;;;;;;5098446;28;20403;-73
2023/08/25 10:46:19;;;;;;;15.77;12.20;;;23.20;28.60;;;;;;5104541;28;20400;-73
2023/08/25 10:48:48;;;;;;;18.73;12.75;;;23.10;30.50;;;;;;5100713;28;20453;-73
2023/08/25 10:51:19;;;;;;;16.42;12.13;;;23.10;31.40;;;;;;5094963;28;20790;-73
2023/08/25 10:53:54;;;;;;;18.05;12.98;;;23.00;32.70;;;;;;5100010;28;20402;-73
2023/08/25 10:56:23;;;;;;;17.60;13.17;;;22.90;31.40;;;;;;5097317;28;20406;-73
2023/08/25 10:59:09;;;;;;;17.80;13.40;;;22.80;32.10;;;;;;5100516;28;20432;-73
2023/08/25 11:01:38;;;;;;;19.93;14.47;;;22.60;33.70;;;;;;5102110;28;20396;-73
2023/08/25 11:04:20;;;;;;;19.63;15.15;;;22.50;36.00;;;;;;5102615;28;20396;-73
2023/08/25 11:07:03;;;;;;;21.60;15.45;;;22.40;38.40;;;;;;5090636;28;20435;-72
2023/08/25 11:09:32;;;;;;;20.02;15.55;;;22.40;39.40;;;;;;5102580;28;20501;-73
2023/08/25 11:12:08;;;;;;;20.63;15.90;;;22.30;40.80;;;;;;5096478;28;20421;-73
2023/08/25 11:14:38;;;;;;;23.50;16.70;;;22.20;42.20;;;;;;5095854;28;20489;-73
2023/08/25 11:17:06;;;;;;;20.40;16.73;;;22.20;44.90;;;;;;5101580;28;20456;-73
2023/08/25 11:19:33;;;;;;;20.08;16.17;;;22.20;46.10;;;;;;5098900;28;20410;-73
2023/08/25 11:22:05;;;;;;;21.05;16.60;;;22.20;47.00;;;;;;5100414;28;20397;-73
2023/08/25 11:24:32;;;;;;;22.63;17.58;;;22.10;47.20;;;;;;5097132;28;20398;-73
2023/08/25 11:27:16;;;;;;;22.80;16.92;;;22.10;48.40;;;;;;5094940;28;20401;-73
2023/08/25 11:29:45;;;;;;;22.85;17.23;;;22.10;49.20;;;;;;5095183;28;20813;-73
2023/08/25 11:32:12;;;;;;;22.55;17.00;;;22.10;49.30;;;;;;5096231;28;20440;-73
2023/08/25 11:34:37;;;;;;;23.33;17.38;;;22.10;50.10;;;;;;5100083;28;20396;-73
2023/08/25 11:37:03;;;;;;;23.25;17.73;;;22.10;49.10;;;;;;5102396;28;20427;-73
2023/08/25 11:39:29;;;;;;;24.83;18.27;;;22.10;48.50;;;;;;5100307;28;20415;-73
2023/08/25 11:41:55;;;;;;;24.00;17.00;;;22.00;49.10;;;;;;5102582;28;20897;-73
2023/08/25 11:44:22;;;;;;;22.90;17.02;;;22.00;49.40;;;;;;5100635;28;20396;-73
2023/08/25 11:46:48;;;;;;;22.92;18.00;;;22.00;50.20;;;;;;5093411;28;20492;-73
2023/08/25 11:49:16;;;;;;;22.27;17.48;;;22.00;49.30;;;;;;5102459;28;21336;-73
2023/08/25 11:51:43;;;;;;;22.30;17.80;;;22.00;51.10;;;;;;5104948;28;20776;-73
2023/08/25 11:54:10;;;;;;;22.05;17.13;;;22.00;51.30;;;;;;5101412;28;20398;-73
2023/08/25 11:56:35;;;;;;;25.05;18.70;;;22.10;51.10;;;;;;5103005;28;21002;-73
2023/08/25 11:59:02;;;;;;;23.08;18.48;;;22.20;52.30;;;;;;5093334;28;20402;-73
2023/08/25 12:01:32;;;;;;;24.10;17.92;;;22.30;51.00;;;;;;5104396;28;20396;-73
2023/08/25 12:04:24;;;;;;;23.75;18.17;;;22.30;50.60;;;;;;5100674;28;20409;-73
2023/08/25 12:06:55;;;;;;;22.60;18.15;;;22.50;52.00;;;;;;5098822;28;20402;-73
2023/08/25 12:09:23;;;;;;;23.85;17.98;;;22.70;51.20;;;;;;5090666;28;20804;-73
2023/08/25 12:11:49;;;;;;;25.17;17.67;;;22.80;46.30;;;;;;5096896;28;20782;-73
2023/08/25 12:14:29;;;;;;;21.63;17.25;;;22.90;44.90;;;;;;5102169;28;20400;-73
2023/08/25 12:16:57;;;;;;;23.20;17.33;;;23.00;45.50;;;;;;5092975;28;20398;-74
2023/08/25 12:19:26;;;;;;;23.17;17.40;;;23.00;44.00;;;;;;5101145;28;20408;-73
2023/08/25 12:21:56;;;;;;;23.85;17.38;;;23.00;41.00;;;;;;5098597;28;20492;-74
2023/08/25 12:24:22;;;;;;;19.92;17.15;;;23.00;38.10;;;;;;5099513;28;20409;-73
2023/08/25 12:26:48;;;;;;;21.98;16.95;;;22.90;38.70;;;;;;5095495;28;20394;-73
2023/08/25 12:29:13;;;;;;;24.50;18.25;;;22.90;38.60;;;;;;5099770;28;20407;-73